sensor_id;sensor_type;location;lat;lon;timestamp;P1;durP1;ratioP1;P2;durP2;ratioP2
25083;SDS011;13075;55.682;37.564;2023-01-25T00:01:36;10.18;;;5.15;;
25083;SDS011;13075;55.682;37.564;2023-01-25T00:04:02;12.35;;;5.18;;
25083;SDS011;13075;55.682;37.564;2023-01-25T00:06:27;9.73;;;6.15;;
25083;SDS011;13075;55.682;37.564;2023-01-25T00:08:53;8.70;;;5.10;;
25083;SDS011;13075;55.682;37.564;2023-01-25T00:11:18;12.15;;;5.47;;
25083;SDS011;13075;55.682;37.564;2023-01-25T00:13:44;11.60;;;5.95;;
25083;SDS011;13075;55.682;37.564;2023-01-25T00:16:10;10.45;;;5.47;;
25083;SDS011;13075;55.682;37.564;2023-01-25T00:18:36;8.60;;;5.50;;
25083;SDS011;13075;55.682;37.564;2023-01-25T00:21:18;8.70;;;5.50;;
25083;SDS011;13075;55.682;37.564;2023-01-25T00:23:45;8.68;;;5.07;;
25083;SDS011;13075;55.682;37.564;2023-01-25T00:26:11;7.10;;;4.70;;
25083;SDS011;13075;55.682;37.564;2023-01-25T00:28:37;9.25;;;4.47;;
25083;SDS011;13075;55.682;37.564;2023-01-25T00:31:04;6.47;;;4.35;;
25083;SDS011;13075;55.682;37.564;2023-01-25T00:33:32;11.00;;;5.97;;
25083;SDS011;13075;55.682;37.564;2023-01-25T00:36:02;6.75;;;4.75;;
25083;SDS011;13075;55.682;37.564;2023-01-25T00:38:47;9.82;;;4.75;;
25083;SDS011;13075;55.682;37.564;2023-01-25T00:41:13;9.43;;;5.50;;
25083;SDS011;13075;55.682;37.564;2023-01-25T00:43:38;7.55;;;4.60;;
25083;SDS011;13075;55.682;37.564;2023-01-25T00:46:04;8.68;;;4.85;;
25083;SDS011;13075;55.682;37.564;2023-01-25T00:48:30;6.95;;;5.15;;
25083;SDS011;13075;55.682;37.564;2023-01-25T00:51:01;9.43;;;5.55;;
25083;SDS011;13075;55.682;37.564;2023-01-25T00:53:27;7.13;;;5.03;;
25083;SDS011;13075;55.682;37.564;2023-01-25T00:55:53;6.13;;;4.22;;
25083;SDS011;13075;55.682;37.564;2023-01-25T00:58:18;10.50;;;4.90;;
25083;SDS011;13075;55.682;37.564;2023-01-25T01:03:21;6.13;;;4.18;;
25083;SDS011;13075;55.682;37.564;2023-01-25T01:05:48;7.30;;;5.03;;
25083;SDS011;13075;55.682;37.564;2023-01-25T01:08:22;6.57;;;4.22;;
25083;SDS011;13075;55.682;37.564;2023-01-25T01:10:48;7.30;;;4.43;;
25083;SDS011;13075;55.682;37.564;2023-01-25T01:13:14;9.80;;;5.63;;
25083;SDS011;13075;55.682;37.564;2023-01-25T01:15:40;6.60;;;4.80;;
25083;SDS011;13075;55.682;37.564;2023-01-25T01:18:05;7.18;;;4.85;;
25083;SDS011;13075;55.682;37.564;2023-01-25T01:20:31;8.13;;;4.47;;
25083;SDS011;13075;55.682;37.564;2023-01-25T01:22:56;6.10;;;3.97;;
25083;SDS011;13075;55.682;37.564;2023-01-25T01:25:22;8.27;;;5.30;;
25083;SDS011;13075;55.682;37.564;2023-01-25T01:27:48;9.52;;;4.63;;
25083;SDS011;13075;55.682;37.564;2023-01-25T01:30:13;9.23;;;4.50;;
25083;SDS011;13075;55.682;37.564;2023-01-25T01:32:40;8.70;;;4.40;;
25083;SDS011;13075;55.682;37.564;2023-01-25T01:35:06;10.23;;;5.40;;
25083;SDS011;13075;55.682;37.564;2023-01-25T01:37:31;10.35;;;5.53;;
25083;SDS011;13075;55.682;37.564;2023-01-25T01:39:57;12.52;;;6.28;;
25083;SDS011;13075;55.682;37.564;2023-01-25T01:42:23;8.60;;;5.38;;
25083;SDS011;13075;55.682;37.564;2023-01-25T01:44:49;8.65;;;5.40;;
25083;SDS011;13075;55.682;37.564;2023-01-25T01:47:29;12.75;;;5.28;;
25083;SDS011;13075;55.682;37.564;2023-01-25T01:50:05;9.27;;;5.88;;
25083;SDS011;13075;55.682;37.564;2023-01-25T01:52:42;8.60;;;5.07;;
25083;SDS011;13075;55.682;37.564;2023-01-25T01:55:09;9.95;;;5.80;;
25083;SDS011;13075;55.682;37.564;2023-01-25T01:57:43;10.52;;;5.47;;
25083;SDS011;13075;55.682;37.564;2023-01-25T02:00:14;8.48;;;5.22;;
25083;SDS011;13075;55.682;37.564;2023-01-25T02:02:44;10.07;;;5.75;;
25083;SDS011;13075;55.682;37.564;2023-01-25T02:05:13;11.75;;;6.13;;
25083;SDS011;13075;55.682;37.564;2023-01-25T02:07:44;8.35;;;5.38;;
25083;SDS011;13075;55.682;37.564;2023-01-25T02:10:13;14.55;;;7.05;;
25083;SDS011;13075;55.682;37.564;2023-01-25T02:12:41;11.55;;;5.47;;
25083;SDS011;13075;55.682;37.564;2023-01-25T02:15:08;12.18;;;7.00;;
25083;SDS011;13075;55.682;37.564;2023-01-25T02:17:35;8.82;;;5.78;;
25083;SDS011;13075;55.682;37.564;2023-01-25T02:20:06;11.13;;;6.57;;
25083;SDS011;13075;55.682;37.564;2023-01-25T02:22:58;11.23;;;5.68;;
25083;SDS011;13075;55.682;37.564;2023-01-25T02:25:27;13.07;;;6.68;;
25083;SDS011;13075;55.682;37.564;2023-01-25T02:27:57;18.02;;;7.85;;
25083;SDS011;13075;55.682;37.564;2023-01-25T02:30:28;9.82;;;5.95;;
25083;SDS011;13075;55.682;37.564;2023-01-25T02:32:55;12.85;;;6.30;;
25083;SDS011;13075;55.682;37.564;2023-01-25T02:35:22;11.27;;;5.72;;
25083;SDS011;13075;55.682;37.564;2023-01-25T02:37:50;10.95;;;6.80;;
25083;SDS011;13075;55.682;37.564;2023-01-25T02:40:16;12.55;;;6.57;;
25083;SDS011;13075;55.682;37.564;2023-01-25T02:42:43;11.52;;;6.45;;
25083;SDS011;13075;55.682;37.564;2023-01-25T02:45:12;10.85;;;5.70;;
25083;SDS011;13075;55.682;37.564;2023-01-25T02:47:41;15.13;;;6.90;;
25083;SDS011;13075;55.682;37.564;2023-01-25T02:50:07;11.02;;;6.32;;
25083;SDS011;13075;55.682;37.564;2023-01-25T02:52:34;11.95;;;6.30;;
25083;SDS011;13075;55.682;37.564;2023-01-25T02:54:59;13.88;;;7.05;;
25083;SDS011;13075;55.682;37.564;2023-01-25T02:57:25;13.43;;;7.55;;
25083;SDS011;13075;55.682;37.564;2023-01-25T02:59:51;13.52;;;7.38;;
25083;SDS011;13075;55.682;37.564;2023-01-25T03:02:17;10.45;;;6.40;;
25083;SDS011;13075;55.682;37.564;2023-01-25T03:04:44;14.85;;;7.65;;
25083;SDS011;13075;55.682;37.564;2023-01-25T03:07:09;9.95;;;6.38;;
25083;SDS011;13075;55.682;37.564;2023-01-25T03:09:35;14.13;;;8.10;;
25083;SDS011;13075;55.682;37.564;2023-01-25T03:12:02;11.48;;;7.55;;
25083;SDS011;13075;55.682;37.564;2023-01-25T03:14:28;14.32;;;7.43;;
25083;SDS011;13075;55.682;37.564;2023-01-25T03:16:54;14.18;;;8.05;;
25083;SDS011;13075;55.682;37.564;2023-01-25T03:19:22;15.15;;;9.07;;
25083;SDS011;13075;55.682;37.564;2023-01-25T03:21:47;13.43;;;6.75;;
25083;SDS011;13075;55.682;37.564;2023-01-25T03:24:13;13.00;;;7.45;;
25083;SDS011;13075;55.682;37.564;2023-01-25T03:26:43;16.45;;;7.85;;
25083;SDS011;13075;55.682;37.564;2023-01-25T03:29:36;11.38;;;7.18;;
25083;SDS011;13075;55.682;37.564;2023-01-25T03:32:06;20.33;;;7.72;;
25083;SDS011;13075;55.682;37.564;2023-01-25T03:34:32;13.77;;;6.95;;
25083;SDS011;13075;55.682;37.564;2023-01-25T03:36:58;17.52;;;7.82;;
25083;SDS011;13075;55.682;37.564;2023-01-25T03:39:24;17.73;;;7.68;;
25083;SDS011;13075;55.682;37.564;2023-01-25T03:41:49;14.32;;;7.95;;
25083;SDS011;13075;55.682;37.564;2023-01-25T03:44:15;17.73;;;8.13;;
25083;SDS011;13075;55.682;37.564;2023-01-25T03:46:43;11.05;;;6.60;;
25083;SDS011;13075;55.682;37.564;2023-01-25T03:49:10;17.85;;;7.97;;
25083;SDS011;13075;55.682;37.564;2023-01-25T03:51:36;14.57;;;8.82;;
25083;SDS011;13075;55.682;37.564;2023-01-25T03:54:02;15.90;;;7.45;;
25083;SDS011;13075;55.682;37.564;2023-01-25T03:56:32;13.40;;;7.30;;
25083;SDS011;13075;55.682;37.564;2023-01-25T03:59:09;11.07;;;6.70;;
25083;SDS011;13075;55.682;37.564;2023-01-25T04:01:36;14.23;;;7.20;;
25083;SDS011;13075;55.682;37.564;2023-01-25T04:04:01;14.75;;;6.82;;
25083;SDS011;13075;55.682;37.564;2023-01-25T04:06:27;19.50;;;8.00;;
25083;SDS011;13075;55.682;37.564;2023-01-25T04:08:54;12.45;;;7.47;;
25083;SDS011;13075;55.682;37.564;2023-01-25T04:11:22;13.52;;;7.68;;
25083;SDS011;13075;55.682;37.564;2023-01-25T04:13:48;13.60;;;8.05;;
25083;SDS011;13075;55.682;37.564;2023-01-25T04:16:15;14.23;;;9.55;;
25083;SDS011;13075;55.682;37.564;2023-01-25T04:19:05;13.32;;;7.57;;
25083;SDS011;13075;55.682;37.564;2023-01-25T04:21:31;19.30;;;8.68;;
25083;SDS011;13075;55.682;37.564;2023-01-25T04:23:57;12.43;;;7.10;;
25083;SDS011;13075;55.682;37.564;2023-01-25T04:26:22;12.98;;;8.10;;
25083;SDS011;13075;55.682;37.564;2023-01-25T04:28:53;15.73;;;9.25;;
25083;SDS011;13075;55.682;37.564;2023-01-25T04:31:19;16.00;;;8.05;;
25083;SDS011;13075;55.682;37.564;2023-01-25T04:33:45;13.25;;;7.43;;
25083;SDS011;13075;55.682;37.564;2023-01-25T04:36:14;21.05;;;7.45;;
25083;SDS011;13075;55.682;37.564;2023-01-25T04:38:41;14.55;;;8.95;;
25083;SDS011;13075;55.682;37.564;2023-01-25T04:41:08;15.68;;;9.13;;
25083;SDS011;13075;55.682;37.564;2023-01-25T04:43:34;16.35;;;8.73;;
25083;SDS011;13075;55.682;37.564;2023-01-25T04:46:05;9.07;;;6.68;;
25083;SDS011;13075;55.682;37.564;2023-01-25T04:48:31;13.65;;;8.30;;
25083;SDS011;13075;55.682;37.564;2023-01-25T04:51:02;24.33;;;8.15;;
25083;SDS011;13075;55.682;37.564;2023-01-25T04:53:28;12.68;;;7.72;;
25083;SDS011;13075;55.682;37.564;2023-01-25T04:55:58;15.75;;;8.00;;
25083;SDS011;13075;55.682;37.564;2023-01-25T04:58:24;13.63;;;7.95;;
25083;SDS011;13075;55.682;37.564;2023-01-25T05:00:51;12.43;;;7.15;;
25083;SDS011;13075;55.682;37.564;2023-01-25T05:03:17;18.85;;;8.80;;
25083;SDS011;13075;55.682;37.564;2023-01-25T05:05:44;14.00;;;8.90;;
25083;SDS011;13075;55.682;37.564;2023-01-25T05:08:12;12.02;;;8.23;;
25083;SDS011;13075;55.682;37.564;2023-01-25T05:18:12;15.38;;;9.02;;
25083;SDS011;13075;55.682;37.564;2023-01-25T05:20:38;13.98;;;8.98;;
25083;SDS011;13075;55.682;37.564;2023-01-25T05:23:05;14.75;;;8.75;;
25083;SDS011;13075;55.682;37.564;2023-01-25T05:25:31;16.05;;;9.32;;
25083;SDS011;13075;55.682;37.564;2023-01-25T05:28:20;13.77;;;8.68;;
25083;SDS011;13075;55.682;37.564;2023-01-25T05:33:32;8.77;;;5.63;;
25083;SDS011;13075;55.682;37.564;2023-01-25T05:35:58;8.57;;;5.40;;
25083;SDS011;13075;55.682;37.564;2023-01-25T05:38:28;9.40;;;5.95;;
25083;SDS011;13075;55.682;37.564;2023-01-25T05:40:56;9.27;;;6.05;;
25083;SDS011;13075;55.682;37.564;2023-01-25T05:43:23;9.55;;;5.70;;
25083;SDS011;13075;55.682;37.564;2023-01-25T05:45:52;13.43;;;7.97;;
25083;SDS011;13075;55.682;37.564;2023-01-25T05:48:18;14.57;;;8.95;;
25083;SDS011;13075;55.682;37.564;2023-01-25T05:50:45;7.43;;;6.00;;
25083;SDS011;13075;55.682;37.564;2023-01-25T05:53:15;7.30;;;5.60;;
25083;SDS011;13075;55.682;37.564;2023-01-25T05:55:41;9.10;;;6.03;;
25083;SDS011;13075;55.682;37.564;2023-01-25T05:58:13;8.13;;;5.78;;
25083;SDS011;13075;55.682;37.564;2023-01-25T06:00:40;9.68;;;5.95;;
25083;SDS011;13075;55.682;37.564;2023-01-25T06:03:06;9.43;;;6.25;;
25083;SDS011;13075;55.682;37.564;2023-01-25T06:05:35;10.38;;;5.88;;
25083;SDS011;13075;55.682;37.564;2023-01-25T06:08:01;10.70;;;6.00;;
25083;SDS011;13075;55.682;37.564;2023-01-25T06:10:46;7.80;;;5.68;;
25083;SDS011;13075;55.682;37.564;2023-01-25T06:13:12;7.28;;;5.70;;
25083;SDS011;13075;55.682;37.564;2023-01-25T06:15:38;9.68;;;5.05;;
25083;SDS011;13075;55.682;37.564;2023-01-25T06:18:24;8.70;;;5.90;;
25083;SDS011;13075;55.682;37.564;2023-01-25T06:21:09;6.97;;;5.25;;
25083;SDS011;13075;55.682;37.564;2023-01-25T06:23:35;10.38;;;5.88;;
25083;SDS011;13075;55.682;37.564;2023-01-25T06:26:02;10.43;;;6.30;;
25083;SDS011;13075;55.682;37.564;2023-01-25T06:28:30;9.68;;;5.50;;
25083;SDS011;13075;55.682;37.564;2023-01-25T06:31:02;7.82;;;6.05;;
25083;SDS011;13075;55.682;37.564;2023-01-25T06:33:39;10.00;;;6.68;;
25083;SDS011;13075;55.682;37.564;2023-01-25T06:36:08;9.65;;;5.97;;
25083;SDS011;13075;55.682;37.564;2023-01-25T06:38:36;8.95;;;5.47;;
25083;SDS011;13075;55.682;37.564;2023-01-25T06:41:02;18.10;;;6.30;;
25083;SDS011;13075;55.682;37.564;2023-01-25T06:43:30;9.43;;;5.60;;
25083;SDS011;13075;55.682;37.564;2023-01-25T06:46:00;10.88;;;5.78;;
25083;SDS011;13075;55.682;37.564;2023-01-25T06:48:28;8.57;;;5.35;;
25083;SDS011;13075;55.682;37.564;2023-01-25T06:50:55;7.38;;;5.90;;
25083;SDS011;13075;55.682;37.564;2023-01-25T06:53:23;9.43;;;6.20;;
25083;SDS011;13075;55.682;37.564;2023-01-25T06:55:55;7.90;;;5.68;;
25083;SDS011;13075;55.682;37.564;2023-01-25T06:58:22;6.32;;;5.25;;
25083;SDS011;13075;55.682;37.564;2023-01-25T07:00:48;7.00;;;4.22;;
25083;SDS011;13075;55.682;37.564;2023-01-25T07:03:13;6.57;;;4.97;;
25083;SDS011;13075;55.682;37.564;2023-01-25T07:05:39;9.00;;;4.50;;
25083;SDS011;13075;55.682;37.564;2023-01-25T07:08:04;6.28;;;4.55;;
25083;SDS011;13075;55.682;37.564;2023-01-25T07:10:30;8.48;;;5.18;;
25083;SDS011;13075;55.682;37.564;2023-01-25T07:12:55;7.10;;;4.28;;
25083;SDS011;13075;55.682;37.564;2023-01-25T07:15:21;6.18;;;4.45;;
25083;SDS011;13075;55.682;37.564;2023-01-25T07:17:47;7.78;;;3.95;;
25083;SDS011;13075;55.682;37.564;2023-01-25T07:20:13;6.35;;;4.45;;
25083;SDS011;13075;55.682;37.564;2023-01-25T07:22:39;6.72;;;4.70;;
25083;SDS011;13075;55.682;37.564;2023-01-25T07:25:05;9.23;;;5.22;;
25083;SDS011;13075;55.682;37.564;2023-01-25T07:27:34;8.00;;;5.25;;
25083;SDS011;13075;55.682;37.564;2023-01-25T07:29:59;7.38;;;5.28;;
25083;SDS011;13075;55.682;37.564;2023-01-25T07:32:27;10.10;;;6.63;;
25083;SDS011;13075;55.682;37.564;2023-01-25T07:34:53;9.82;;;5.13;;
25083;SDS011;13075;55.682;37.564;2023-01-25T07:37:18;9.65;;;6.07;;
25083;SDS011;13075;55.682;37.564;2023-01-25T07:39:44;10.85;;;6.43;;
25083;SDS011;13075;55.682;37.564;2023-01-25T07:42:13;9.65;;;6.13;;
25083;SDS011;13075;55.682;37.564;2023-01-25T07:44:48;9.45;;;5.85;;
25083;SDS011;13075;55.682;37.564;2023-01-25T07:47:14;7.85;;;6.20;;
25083;SDS011;13075;55.682;37.564;2023-01-25T07:49:40;9.20;;;5.97;;
25083;SDS011;13075;55.682;37.564;2023-01-25T07:52:05;11.80;;;6.45;;
25083;SDS011;13075;55.682;37.564;2023-01-25T07:54:31;9.77;;;6.53;;
25083;SDS011;13075;55.682;37.564;2023-01-25T07:56:56;10.63;;;6.57;;
25083;SDS011;13075;55.682;37.564;2023-01-25T07:59:23;12.93;;;6.78;;
25083;SDS011;13075;55.682;37.564;2023-01-25T08:01:49;7.22;;;5.50;;
25083;SDS011;13075;55.682;37.564;2023-01-25T08:04:14;9.55;;;6.60;;
25083;SDS011;13075;55.682;37.564;2023-01-25T08:06:41;9.02;;;6.03;;
25083;SDS011;13075;55.682;37.564;2023-01-25T08:09:11;10.30;;;6.90;;
25083;SDS011;13075;55.682;37.564;2023-01-25T08:11:44;9.25;;;6.47;;
25083;SDS011;13075;55.682;37.564;2023-01-25T08:14:10;8.95;;;6.43;;
25083;SDS011;13075;55.682;37.564;2023-01-25T08:16:36;9.82;;;6.55;;
25083;SDS011;13075;55.682;37.564;2023-01-25T08:19:02;11.32;;;5.45;;
25083;SDS011;13075;55.682;37.564;2023-01-25T08:21:29;13.82;;;7.30;;
25083;SDS011;13075;55.682;37.564;2023-01-25T08:23:57;11.70;;;7.85;;
25083;SDS011;13075;55.682;37.564;2023-01-25T08:26:24;9.57;;;6.38;;
25083;SDS011;13075;55.682;37.564;2023-01-25T08:28:50;11.00;;;6.90;;
25083;SDS011;13075;55.682;37.564;2023-01-25T08:31:19;12.32;;;6.80;;
25083;SDS011;13075;55.682;37.564;2023-01-25T08:33:47;12.45;;;7.68;;
25083;SDS011;13075;55.682;37.564;2023-01-25T08:36:14;12.60;;;7.13;;
25083;SDS011;13075;55.682;37.564;2023-01-25T08:38:41;11.60;;;7.45;;
25083;SDS011;13075;55.682;37.564;2023-01-25T08:41:12;12.02;;;7.80;;
25083;SDS011;13075;55.682;37.564;2023-01-25T08:43:43;10.82;;;7.20;;
25083;SDS011;13075;55.682;37.564;2023-01-25T08:46:09;12.27;;;7.93;;
25083;SDS011;13075;55.682;37.564;2023-01-25T08:48:35;13.43;;;7.55;;
25083;SDS011;13075;55.682;37.564;2023-01-25T08:51:01;10.70;;;6.82;;
25083;SDS011;13075;55.682;37.564;2023-01-25T08:53:28;11.65;;;7.07;;
25083;SDS011;13075;55.682;37.564;2023-01-25T08:55:54;14.05;;;8.15;;
25083;SDS011;13075;55.682;37.564;2023-01-25T08:58:20;11.70;;;7.13;;
25083;SDS011;13075;55.682;37.564;2023-01-25T09:00:47;10.93;;;6.18;;
25083;SDS011;13075;55.682;37.564;2023-01-25T09:03:13;10.55;;;7.07;;
25083;SDS011;13075;55.682;37.564;2023-01-25T09:05:40;12.18;;;6.35;;
25083;SDS011;13075;55.682;37.564;2023-01-25T09:08:06;8.07;;;5.65;;
25083;SDS011;13075;55.682;37.564;2023-01-25T09:10:33;10.50;;;5.55;;
25083;SDS011;13075;55.682;37.564;2023-01-25T09:12:59;10.05;;;6.47;;
25083;SDS011;13075;55.682;37.564;2023-01-25T09:15:25;9.05;;;5.53;;
25083;SDS011;13075;55.682;37.564;2023-01-25T09:17:51;11.15;;;6.13;;
25083;SDS011;13075;55.682;37.564;2023-01-25T09:20:21;8.05;;;4.97;;
25083;SDS011;13075;55.682;37.564;2023-01-25T09:22:47;9.43;;;5.50;;
25083;SDS011;13075;55.682;37.564;2023-01-25T09:25:13;7.63;;;5.50;;
25083;SDS011;13075;55.682;37.564;2023-01-25T09:27:40;7.35;;;5.15;;
25083;SDS011;13075;55.682;37.564;2023-01-25T09:30:06;9.70;;;6.03;;
25083;SDS011;13075;55.682;37.564;2023-01-25T09:32:34;10.00;;;7.03;;
25083;SDS011;13075;55.682;37.564;2023-01-25T09:35:00;12.25;;;8.27;;
25083;SDS011;13075;55.682;37.564;2023-01-25T09:37:26;12.63;;;7.95;;
25083;SDS011;13075;55.682;37.564;2023-01-25T09:39:51;10.05;;;6.57;;
25083;SDS011;13075;55.682;37.564;2023-01-25T09:45:42;9.35;;;5.95;;
25083;SDS011;13075;55.682;37.564;2023-01-25T09:47:59;9.65;;;6.82;;
25083;SDS011;13075;55.682;37.564;2023-01-25T09:58:45;15.57;;;8.07;;
25083;SDS011;13075;55.682;37.564;2023-01-25T10:01:24;14.55;;;7.25;;
25083;SDS011;13075;55.682;37.564;2023-01-25T10:03:57;13.48;;;7.50;;
25083;SDS011;13075;55.682;37.564;2023-01-25T10:06:37;10.93;;;7.57;;
25083;SDS011;13075;55.682;37.564;2023-01-25T10:11:48;9.93;;;6.78;;
25083;SDS011;13075;55.682;37.564;2023-01-25T10:14:15;9.15;;;6.82;;
25083;SDS011;13075;55.682;37.564;2023-01-25T10:24:57;10.63;;;6.75;;
25083;SDS011;13075;55.682;37.564;2023-01-25T10:32:49;13.75;;;7.28;;
25083;SDS011;13075;55.682;37.564;2023-01-25T10:35:21;11.35;;;7.78;;
25083;SDS011;13075;55.682;37.564;2023-01-25T10:37:50;10.52;;;6.85;;
25083;SDS011;13075;55.682;37.564;2023-01-25T10:40:18;10.88;;;7.85;;
25083;SDS011;13075;55.682;37.564;2023-01-25T10:42:50;13.82;;;5.93;;
25083;SDS011;13075;55.682;37.564;2023-01-25T10:45:32;11.27;;;7.20;;
25083;SDS011;13075;55.682;37.564;2023-01-25T10:47:59;12.18;;;6.80;;
25083;SDS011;13075;55.682;37.564;2023-01-25T11:00:54;10.07;;;6.55;;
25083;SDS011;13075;55.682;37.564;2023-01-25T11:03:21;9.80;;;6.45;;
25083;SDS011;13075;55.682;37.564;2023-01-25T11:05:53;11.52;;;7.03;;
25083;SDS011;13075;55.682;37.564;2023-01-25T11:11:14;10.10;;;6.13;;
25083;SDS011;13075;55.682;37.564;2023-01-25T11:13:46;9.23;;;6.78;;
25083;SDS011;13075;55.682;37.564;2023-01-25T11:16:19;12.02;;;6.97;;
25083;SDS011;13075;55.682;37.564;2023-01-25T11:22:03;9.13;;;5.97;;
25083;SDS011;13075;55.682;37.564;2023-01-25T11:24:43;11.45;;;6.70;;
25083;SDS011;13075;55.682;37.564;2023-01-25T11:27:11;14.02;;;6.68;;
25083;SDS011;13075;55.682;37.564;2023-01-25T11:29:45;11.98;;;6.88;;
25083;SDS011;13075;55.682;37.564;2023-01-25T11:32:34;11.68;;;6.05;;
25083;SDS011;13075;55.682;37.564;2023-01-25T11:35:02;15.07;;;6.50;;
25083;SDS011;13075;55.682;37.564;2023-01-25T11:42:56;10.57;;;6.65;;
25083;SDS011;13075;55.682;37.564;2023-01-25T11:48:21;16.67;;;7.50;;
25083;SDS011;13075;55.682;37.564;2023-01-25T11:59:26;16.42;;;7.35;;
25083;SDS011;13075;55.682;37.564;2023-01-25T12:16:21;13.25;;;8.13;;
25083;SDS011;13075;55.682;37.564;2023-01-25T12:19:07;12.60;;;7.32;;
25083;SDS011;13075;55.682;37.564;2023-01-25T12:33:49;11.63;;;7.28;;
25083;SDS011;13075;55.682;37.564;2023-01-25T12:36:13;11.73;;;6.75;;
25083;SDS011;13075;55.682;37.564;2023-01-25T12:39:03;16.10;;;7.47;;
25083;SDS011;13075;55.682;37.564;2023-01-25T12:44:02;16.58;;;8.07;;
25083;SDS011;13075;55.682;37.564;2023-01-25T12:46:58;13.57;;;6.60;;
25083;SDS011;13075;55.682;37.564;2023-01-25T12:52:21;15.00;;;7.35;;
25083;SDS011;13075;55.682;37.564;2023-01-25T12:54:47;13.82;;;7.68;;
25083;SDS011;13075;55.682;37.564;2023-01-25T12:57:20;13.95;;;7.13;;
25083;SDS011;13075;55.682;37.564;2023-01-25T12:59:59;14.82;;;8.43;;
25083;SDS011;13075;55.682;37.564;2023-01-25T13:10:49;14.65;;;8.25;;
25083;SDS011;13075;55.682;37.564;2023-01-25T13:15:51;19.30;;;8.67;;
25083;SDS011;13075;55.682;37.564;2023-01-25T13:18:36;14.13;;;7.50;;
25083;SDS011;13075;55.682;37.564;2023-01-25T13:21:04;17.17;;;7.97;;
25083;SDS011;13075;55.682;37.564;2023-01-25T13:23:42;16.60;;;9.27;;
25083;SDS011;13075;55.682;37.564;2023-01-25T13:28:55;15.27;;;7.93;;
25083;SDS011;13075;55.682;37.564;2023-01-25T13:39:44;17.70;;;9.45;;
25083;SDS011;13075;55.682;37.564;2023-01-25T13:42:23;15.25;;;8.77;;
25083;SDS011;13075;55.682;37.564;2023-01-25T13:44:55;19.70;;;9.60;;
25083;SDS011;13075;55.682;37.564;2023-01-25T13:47:33;20.05;;;8.73;;
25083;SDS011;13075;55.682;37.564;2023-01-25T13:52:38;16.98;;;9.40;;
25083;SDS011;13075;55.682;37.564;2023-01-25T13:55:37;18.92;;;9.43;;
25083;SDS011;13075;55.682;37.564;2023-01-25T14:04:03;20.33;;;10.30;;
25083;SDS011;13075;55.682;37.564;2023-01-25T14:08:55;19.75;;;9.18;;
25083;SDS011;13075;55.682;37.564;2023-01-25T14:11:24;18.50;;;9.32;;
25083;SDS011;13075;55.682;37.564;2023-01-25T14:17:03;19.67;;;8.88;;
25083;SDS011;13075;55.682;37.564;2023-01-25T14:19:29;20.17;;;10.85;;
25083;SDS011;13075;55.682;37.564;2023-01-25T14:24:43;20.15;;;8.55;;
25083;SDS011;13075;55.682;37.564;2023-01-25T14:27:12;15.48;;;8.30;;
25083;SDS011;13075;55.682;37.564;2023-01-25T14:29:39;20.42;;;10.15;;
25083;SDS011;13075;55.682;37.564;2023-01-25T14:32:05;17.15;;;8.50;;
25083;SDS011;13075;55.682;37.564;2023-01-25T14:34:31;19.05;;;9.60;;
25083;SDS011;13075;55.682;37.564;2023-01-25T14:37:09;17.80;;;8.02;;
25083;SDS011;13075;55.682;37.564;2023-01-25T14:39:41;20.63;;;9.60;;
25083;SDS011;13075;55.682;37.564;2023-01-25T14:42:07;18.95;;;9.65;;
25083;SDS011;13075;55.682;37.564;2023-01-25T14:44:33;21.13;;;9.23;;
25083;SDS011;13075;55.682;37.564;2023-01-25T14:49:44;15.10;;;8.90;;
25083;SDS011;13075;55.682;37.564;2023-01-25T14:52:12;18.92;;;9.38;;
25083;SDS011;13075;55.682;37.564;2023-01-25T14:57:32;22.05;;;9.77;;
25083;SDS011;13075;55.682;37.564;2023-01-25T15:02:46;19.25;;;9.25;;
25083;SDS011;13075;55.682;37.564;2023-01-25T15:13:32;18.25;;;8.02;;
25083;SDS011;13075;55.682;37.564;2023-01-25T15:15:54;19.40;;;9.18;;
25083;SDS011;13075;55.682;37.564;2023-01-25T15:23:43;17.15;;;8.45;;
25083;SDS011;13075;55.682;37.564;2023-01-25T15:26:11;21.75;;;9.50;;
25083;SDS011;13075;55.682;37.564;2023-01-25T15:28:48;20.88;;;9.20;;
25083;SDS011;13075;55.682;37.564;2023-01-25T15:31:20;17.52;;;8.82;;
25083;SDS011;13075;55.682;37.564;2023-01-25T15:33:51;18.83;;;9.68;;
25083;SDS011;13075;55.682;37.564;2023-01-25T15:36:17;13.80;;;8.32;;
25083;SDS011;13075;55.682;37.564;2023-01-25T15:38:43;17.73;;;8.38;;
25083;SDS011;13075;55.682;37.564;2023-01-25T15:41:09;14.45;;;8.05;;
25083;SDS011;13075;55.682;37.564;2023-01-25T15:43:36;16.75;;;9.20;;
25083;SDS011;13075;55.682;37.564;2023-01-25T15:46:02;20.83;;;9.77;;
25083;SDS011;13075;55.682;37.564;2023-01-25T15:48:30;17.85;;;8.80;;
25083;SDS011;13075;55.682;37.564;2023-01-25T15:50:58;19.33;;;9.35;;
25083;SDS011;13075;55.682;37.564;2023-01-25T15:53:24;19.30;;;9.68;;
25083;SDS011;13075;55.682;37.564;2023-01-25T15:55:52;20.13;;;9.95;;
25083;SDS011;13075;55.682;37.564;2023-01-25T15:58:24;19.55;;;9.05;;
25083;SDS011;13075;55.682;37.564;2023-01-25T16:00:53;17.90;;;9.02;;
25083;SDS011;13075;55.682;37.564;2023-01-25T16:03:18;26.20;;;11.10;;
25083;SDS011;13075;55.682;37.564;2023-01-25T16:05:45;22.25;;;10.10;;
25083;SDS011;13075;55.682;37.564;2023-01-25T16:08:14;14.40;;;8.00;;
25083;SDS011;13075;55.682;37.564;2023-01-25T16:10:41;17.15;;;8.73;;
25083;SDS011;13075;55.682;37.564;2023-01-25T16:13:08;21.20;;;9.75;;
25083;SDS011;13075;55.682;37.564;2023-01-25T16:15:34;17.73;;;9.27;;
25083;SDS011;13075;55.682;37.564;2023-01-25T16:18:01;21.27;;;10.80;;
25083;SDS011;13075;55.682;37.564;2023-01-25T16:20:26;16.90;;;8.90;;
25083;SDS011;13075;55.682;37.564;2023-01-25T16:22:52;15.95;;;8.57;;
25083;SDS011;13075;55.682;37.564;2023-01-25T16:25:17;16.38;;;9.13;;
25083;SDS011;13075;55.682;37.564;2023-01-25T16:27:43;19.63;;;9.63;;
25083;SDS011;13075;55.682;37.564;2023-01-25T16:30:15;19.52;;;9.88;;
25083;SDS011;13075;55.682;37.564;2023-01-25T16:32:44;19.23;;;10.30;;
25083;SDS011;13075;55.682;37.564;2023-01-25T16:35:11;23.85;;;10.07;;
25083;SDS011;13075;55.682;37.564;2023-01-25T16:37:37;18.55;;;9.35;;
25083;SDS011;13075;55.682;37.564;2023-01-25T16:40:03;19.67;;;9.73;;
25083;SDS011;13075;55.682;37.564;2023-01-25T16:42:29;19.05;;;9.13;;
25083;SDS011;13075;55.682;37.564;2023-01-25T16:44:55;14.75;;;8.38;;
25083;SDS011;13075;55.682;37.564;2023-01-25T16:47:20;18.88;;;9.35;;
25083;SDS011;13075;55.682;37.564;2023-01-25T16:49:46;14.45;;;8.93;;
25083;SDS011;13075;55.682;37.564;2023-01-25T16:52:11;13.90;;;8.95;;
25083;SDS011;13075;55.682;37.564;2023-01-25T16:54:37;18.63;;;9.25;;
25083;SDS011;13075;55.682;37.564;2023-01-25T16:57:03;20.10;;;9.77;;
25083;SDS011;13075;55.682;37.564;2023-01-25T16:59:28;17.35;;;9.30;;
25083;SDS011;13075;55.682;37.564;2023-01-25T17:01:54;19.73;;;9.95;;
25083;SDS011;13075;55.682;37.564;2023-01-25T17:04:20;19.27;;;9.82;;
25083;SDS011;13075;55.682;37.564;2023-01-25T17:06:47;19.02;;;9.25;;
25083;SDS011;13075;55.682;37.564;2023-01-25T17:09:15;19.98;;;9.82;;
25083;SDS011;13075;55.682;37.564;2023-01-25T17:11:43;19.70;;;10.82;;
25083;SDS011;13075;55.682;37.564;2023-01-25T17:14:13;15.77;;;9.48;;
25083;SDS011;13075;55.682;37.564;2023-01-25T17:16:40;20.35;;;11.07;;
25083;SDS011;13075;55.682;37.564;2023-01-25T17:19:07;18.50;;;9.07;;
25083;SDS011;13075;55.682;37.564;2023-01-25T17:21:36;20.17;;;9.30;;